Time;durP1;ratioP1;P1;durP2;ratioP2;P2;SDS_P1;SDS_P2;PMS_P1;PMS_P2;Temp;Humidity;BMP_temperature;BMP_pressure;BME280_temperature;BME280_humidity;BME280_pressure;Samples;Min_cycle;Max_cycle;Signal;HPM_P1;HPM_P2
2021/11/23 00:02:17;;;;;;;19.48;11.35;;;;;;;1.18;77.24;101789.03;8719363;33;20136;-74
2021/11/23 00:07:22;;;;;;;17.90;11.82;;;;;;;1.15;77.33;101792.66;8719302;33;20203;-75
2021/11/23 00:12:25;;;;;;;19.90;12.75;;;;;;;1.11;77.47;101803.31;8694376;33;20176;-74
2021/11/23 00:17:29;;;;;;;18.15;11.32;;;;;;;1.18;77.16;101800.53;8719185;33;20183;-74
2021/11/23 00:22:33;;;;;;;19.77;11.68;;;;;;;1.11;77.52;101790.09;8719040;33;20656;-74
2021/11/23 00:27:36;;;;;;;17.67;11.45;;;;;;;1.13;77.21;101804.16;8718367;33;21498;-74
2021/11/23 00:32:39;;;;;;;20.73;11.95;;;;;;;1.11;77.02;101792.72;8718549;33;20487;-74
2021/11/23 00:37:47;;;;;;;15.95;10.80;;;;;;;1.10;77.30;101783.03;8719073;33;20426;-73
2021/11/23 00:42:50;;;;;;;20.48;11.35;;;;;;;1.11;77.14;101788.31;8719022;33;20196;-74
2021/11/23 00:47:53;;;;;;;18.02;11.30;;;;;;;1.11;77.27;101790.94;8723294;33;20222;-74
2021/11/23 00:52:58;;;;;;;18.15;10.60;;;;;;;1.24;77.04;101789.81;8718202;33;20250;-74
2021/11/23 00:58:01;;;;;;;14.73;10.85;;;;;;;1.37;76.44;101790.44;8718193;33;20190;-74
2021/11/23 01:03:05;;;;;;;19.75;11.38;;;;;;;1.32;76.20;101779.06;8717895;33;20502;-73
2021/11/23 01:08:10;;;;;;;20.00;11.85;;;;;;;1.24;76.19;101778.34;8693161;33;20175;-74
2021/11/23 01:13:13;;;;;;;16.73;11.32;;;;;;;1.02;76.85;101784.06;8719182;33;20928;-74
2021/11/23 01:18:16;;;;;;;16.02;9.95;;;;;;;1.10;77.05;101783.91;8718001;33;20880;-73
2021/11/23 01:23:21;;;;;;;18.02;11.15;;;;;;;1.11;77.17;101780.34;8717570;33;21396;-74
2021/11/23 01:28:26;;;;;;;16.20;11.07;;;;;;;1.36;76.48;101769.28;8717448;33;20228;-73
2021/11/23 01:33:29;;;;;;;16.90;10.77;;;;;;;1.34;76.13;101763.13;8716604;33;20656;-74
2021/11/23 01:38:34;;;;;;;16.95;11.80;;;;;;;1.36;76.24;101756.91;8715194;33;20266;-74
2021/11/23 01:43:38;;;;;;;16.15;11.10;;;;;;;1.35;76.43;101755.16;8715637;33;20187;-74
2021/11/23 01:48:41;;;;;;;18.55;10.98;;;;;;;1.47;76.24;101744.31;8715421;33;20186;-76
2021/11/23 01:53:46;;;;;;;14.65;10.65;;;;;;;1.46;76.11;101758.47;8690783;33;20551;-74
2021/11/23 01:58:49;;;;;;;16.63;11.00;;;;;;;1.58;75.97;101759.09;8714976;33;20533;-73
2021/11/23 02:03:52;;;;;;;16.08;10.65;;;;;;;1.64;75.64;101748.38;8716024;33;20164;-74
2021/11/23 02:08:57;;;;;;;16.20;11.27;;;;;;;1.53;75.88;101747.72;8715682;33;20617;-74
2021/11/23 02:14:00;;;;;;;17.60;11.20;;;;;;;1.56;76.03;101751.19;8715261;33;20247;-74
2021/11/23 02:19:04;;;;;;;19.90;11.40;;;;;;;1.56;75.92;101755.59;8715473;33;21097;-74
2021/11/23 02:24:08;;;;;;;17.90;11.15;;;;;;;1.51;76.53;101753.09;8714990;33;20184;-74
2021/11/23 02:29:11;;;;;;;21.58;10.80;;;;;;;1.47;76.72;101746.09;8713102;33;21946;-74
2021/11/23 02:34:14;;;;;;;19.05;10.98;;;;;;;1.59;76.76;101742.28;8714934;33;21046;-73
2021/11/23 02:39:19;;;;;;;19.58;11.02;;;;;;;1.44;77.48;101740.88;8714567;33;20148;-74
2021/11/23 02:44:22;;;;;;;15.18;8.15;;;;;;;1.53;77.34;101743.31;8715236;33;20266;-74
2021/11/23 02:49:25;;;;;;;15.75;10.55;;;;;;;1.56;77.37;101745.88;8714155;33;20192;-74
2021/11/23 02:54:29;;;;;;;16.77;11.18;;;;;;;1.70;76.88;101743.81;8714934;33;20187;-74
2021/11/23 02:59:32;;;;;;;17.55;10.75;;;;;;;1.73;76.62;101742.88;8714142;33;20184;-74
2021/11/23 03:04:35;;;;;;;16.58;10.52;;;;;;;1.83;76.70;101738.22;8718602;33;20955;-74
2021/11/23 03:09:40;;;;;;;23.85;11.95;;;;;;;1.56;77.10;101743.22;8737682;33;20202;-73
2021/11/23 03:14:43;;;;;;;13.90;8.85;;;;;;;1.57;76.90;101741.47;8737479;33;20160;-74
2021/11/23 03:19:48;;;;;;;19.63;10.65;;;;;;;1.63;77.15;101739.56;8718276;33;20299;-74
2021/11/23 03:24:53;;;;;;;20.33;10.93;;;;;;;1.63;77.41;101736.03;8719851;33;20286;-73
2021/11/23 03:29:56;;;;;;;19.48;11.07;;;;;;;1.48;78.49;101739.88;8721947;33;20636;-74
2021/11/23 03:35:00;;;;;;;17.65;11.07;;;;;;;1.39;80.06;101740.09;8721503;33;21387;-73
2021/11/23 03:40:07;;;;;;;17.77;11.40;;;;;;;1.19;81.73;101730.78;8718457;33;20635;-73
2021/11/23 03:45:12;;;;;;;21.10;11.70;;;;;;;1.13;83.19;101730.91;8723774;33;20183;-74
2021/11/23 03:50:17;;;;;;;19.48;10.93;;;;;;;1.04;84.26;101729.34;8718067;33;20273;-74
2021/11/23 03:55:23;;;;;;;18.08;10.88;;;;;;;0.97;84.83;101718.91;8718006;33;20187;-74
2021/11/23 04:00:26;;;;;;;14.73;9.65;;;;;;;0.69;86.08;101722.06;8715644;33;20226;-74
2021/11/23 04:05:29;;;;;;;20.58;11.25;;;;;;;0.86;86.22;101719.09;8717655;33;20535;-74
2021/11/23 04:10:34;;;;;;;20.60;12.13;;;;;;;0.84;86.80;101720.91;8693081;33;20152;-74
2021/11/23 04:15:37;;;;;;;23.58;12.23;;;;;;;0.76;87.10;101730.75;8716913;33;20194;-74
2021/11/23 04:20:40;;;;;;;28.42;11.88;;;;;;;1.00;86.94;101724.13;8717094;33;20237;-74
2021/11/23 04:25:45;;;;;;;30.70;12.55;;;;;;;0.97;86.52;101719.75;8717241;33;20184;-74
2021/11/23 04:30:48;;;;;;;19.58;11.93;;;;;;;0.87;87.49;101702.31;8716413;33;20246;-74
2021/11/23 04:35:51;;;;;;;22.77;12.30;;;;;;;0.63;88.53;101705.44;8717260;33;20279;-74
2021/11/23 04:40:55;;;;;;;22.10;12.60;;;;;;;0.80;87.42;101703.34;8717253;33;21314;-74
2021/11/23 04:45:59;;;;;;;21.38;13.00;;;;;;;0.83;87.60;101700.66;8716897;33;20274;-74
2021/11/23 04:51:02;;;;;;;22.05;12.77;;;;;;;0.85;87.75;101693.56;8692087;33;20519;-73
2021/11/23 04:56:07;;;;;;;24.47;13.40;;;;;;;0.83;88.21;101695.34;8715347;33;20604;-74
2021/11/23 05:01:10;;;;;;;24.83;14.27;;;;;;;0.98;87.76;101684.44;8715673;33;20184;-74
2021/11/23 05:06:13;;;;;;;23.75;13.88;;;;;;;0.90;87.69;101696.97;8717020;33;20594;-74
2021/11/23 05:11:18;;;;;;;26.02;14.80;;;;;;;0.84;88.82;101694.44;8715990;33;20171;-74
2021/11/23 05:16:21;;;;;;;28.00;14.60;;;;;;;0.90;88.57;101694.31;8716123;33;20155;-74
2021/11/23 05:21:24;;;;;;;29.30;14.82;;;;;;;1.06;88.23;101697.53;8716066;33;20223;-75
2021/11/23 05:26:28;;;;;;;27.42;15.15;;;;;;;1.13;87.97;101711.53;8716614;33;20519;-75
2021/11/23 05:31:33;;;;;;;24.65;14.32;;;;;;;1.15;87.66;101705.28;8718496;33;20640;-75
2021/11/23 05:36:36;;;;;;;23.65;14.82;;;;;;;1.28;87.44;101716.47;8718168;33;20274;-74
2021/11/23 05:41:40;;;;;;;23.30;13.25;;;;;;;1.28;87.66;101717.34;8718724;33;20232;-74
2021/11/23 05:46:44;;;;;;;25.52;14.35;;;;;;;1.37;87.11;101710.09;8718887;33;20275;-74
2021/11/23 05:51:47;;;;;;;25.00;12.70;;;;;;;1.34;87.12;101705.75;8717489;33;20183;-74
2021/11/23 05:56:51;;;;;;;24.10;13.10;;;;;;;1.47;87.39;101695.78;8716769;33;20295;-74
2021/11/23 06:01:57;;;;;;;26.13;12.75;;;;;;;1.43;87.35;101699.41;8691414;33;20553;-74
2021/11/23 06:07:00;;;;;;;21.55;12.40;;;;;;;1.37;87.23;101699.50;8718925;33;20416;-74
2021/11/23 06:12:06;;;;;;;20.97;13.60;;;;;;;1.40;87.96;101704.75;8717124;33;21011;-74
2021/11/23 06:17:11;;;;;;;20.23;11.90;;;;;;;1.53;87.49;101705.34;8715880;33;20452;-74
2021/11/23 06:22:14;;;;;;;20.33;12.63;;;;;;;1.61;87.79;101698.97;8713798;33;21149;-74
2021/11/23 06:27:18;;;;;;;19.13;12.10;;;;;;;1.67;87.51;101706.81;8715533;33;20195;-73
2021/11/23 06:32:25;;;;;;;20.42;12.38;;;;;;;1.62;87.31;101719.28;8714973;33;20207;-73
2021/11/23 06:37:28;;;;;;;21.85;12.80;;;;;;;1.64;87.61;101721.88;8715020;33;20279;-73
2021/11/23 06:42:32;;;;;;;18.67;12.13;;;;;;;1.73;87.85;101725.19;8714767;33;20851;-73
2021/11/23 06:47:36;;;;;;;21.05;13.18;;;;;;;1.82;87.71;101729.41;8718012;33;20167;-73
2021/11/23 06:52:39;;;;;;;23.63;12.80;;;;;;;1.74;87.66;101734.00;8720237;33;20753;-73
2021/11/23 06:57:43;;;;;;;24.83;14.00;;;;;;;1.70;87.21;101742.91;8719829;33;20219;-73
2021/11/23 07:02:46;;;;;;;20.77;12.45;;;;;;;1.81;87.81;101746.22;8720017;33;21168;-73
2021/11/23 07:07:50;;;;;;;19.27;12.90;;;;;;;1.87;87.93;101748.72;8719875;33;20183;-73
2021/11/23 07:12:54;;;;;;;20.30;13.07;;;;;;;1.91;87.54;101754.81;8718338;33;20222;-73
2021/11/23 07:17:57;;;;;;;22.15;12.25;;;;;;;1.96;87.86;101763.53;8719198;33;20453;-77
2021/11/23 07:23:00;;;;;;;23.35;13.00;;;;;;;1.93;87.57;101756.53;8719679;33;20418;-72
2021/11/23 07:28:05;;;;;;;17.83;11.40;;;;;;;1.91;87.76;101758.34;8717752;33;20497;-73
2021/11/23 07:33:08;;;;;;;21.08;11.80;;;;;;;1.83;87.88;101765.59;8718736;33;20775;-72
2021/11/23 07:38:11;;;;;;;19.25;12.27;;;;;;;1.95;87.85;101765.31;8718780;33;20202;-73
2021/11/23 07:43:16;;;;;;;20.77;12.05;;;;;;;2.05;88.02;101770.41;8718063;33;20899;-73
2021/11/23 07:48:19;;;;;;;21.30;11.82;;;;;;;2.05;87.80;101767.75;8717864;33;20187;-73
2021/11/23 07:53:22;;;;;;;23.25;13.65;;;;;;;2.08;87.99;101765.03;8717597;33;20274;-73
2021/11/23 07:58:27;;;;;;;26.02;13.88;;;;;;;2.13;87.78;101769.31;8715550;33;20492;-72
2021/11/23 08:03:30;;;;;;;25.83;13.77;;;;;;;2.08;87.91;101773.84;8718290;33;20739;-73
2021/11/23 08:08:33;;;;;;;23.00;11.32;;;;;;;1.81;88.75;101780.69;8717776;33;20184;-73
2021/11/23 08:13:37;;;;;;;24.42;13.13;;;;;;;1.91;88.07;101794.56;8718769;33;20242;-72
2021/11/23 08:18:41;;;;;;;26.55;12.20;;;;;;;2.10;87.82;101798.53;8718275;33;20302;-72
2021/11/23 08:23:44;;;;;;;27.48;15.00;;;;;;;2.09;87.77;101796.81;8717656;33;20692;-72
2021/11/23 08:28:48;;;;;;;26.05;13.75;;;;;;;2.04;87.94;101797.84;8717096;33;20191;-72
2021/11/23 08:33:51;;;;;;;30.02;14.23;;;;;;;1.98;88.36;101806.81;8716154;33;20236;-72
2021/11/23 08:38:54;;;;;;;30.27;15.57;;;;;;;2.12;88.33;101803.81;8716624;33;20259;-72
2021/11/23 08:43:59;;;;;;;31.77;16.88;;;;;;;2.27;87.94;101803.44;8729932;33;20148;-72
2021/11/23 08:49:03;;;;;;;26.83;14.82;;;;;;;2.25;87.93;101807.94;8738688;33;20278;-72
2021/11/23 08:54:07;;;;;;;32.85;16.85;;;;;;;2.07;88.34;101809.22;8751247;33;20938;-72
2021/11/23 08:59:13;;;;;;;37.45;16.67;;;;;;;2.32;88.06;101812.16;8716875;33;20468;-72
2021/11/23 09:04:16;;;;;;;39.28;16.73;;;;;;;2.28;87.71;101809.66;8716962;33;20322;-72
2021/11/23 09:09:23;;;;;;;45.33;18.27;;;;;;;2.31;87.80;101813.09;8716757;33;20533;-72
2021/11/23 09:14:28;;;;;;;39.60;16.35;;;;;;;2.18;88.24;101822.25;8717290;33;20278;-72
2021/11/23 09:19:31;;;;;;;35.00;16.98;;;;;;;2.19;88.34;101823.97;8715990;33;20453;-73
2021/11/23 09:24:35;;;;;;;35.28;17.95;;;;;;;2.30;88.48;101827.25;8716959;33;20183;-72
2021/11/23 09:29:40;;;;;;;39.13;18.85;;;;;;;2.69;88.17;101837.84;8716222;33;20231;-72
2021/11/23 09:34:43;;;;;;;41.10;17.40;;;;;;;2.44;87.67;101842.84;8717321;33;20136;-72
2021/11/23 09:39:47;;;;;;;37.90;17.50;;;;;;;2.50;88.32;101845.34;8715357;33;20756;-73
2021/11/23 09:44:52;;;;;;;38.03;19.00;;;;;;;2.46;88.00;101848.09;8716477;33;20240;-73
2021/11/23 09:49:58;;;;;;;37.95;18.50;;;;;;;2.58;87.82;101839.91;8716048;33;20439;-73
2021/11/23 09:55:02;;;;;;;36.05;18.73;;;;;;;2.64;87.74;101837.09;8714667;33;20512;-72
2021/11/23 10:00:26;;;;;;;34.75;18.05;;;;;;;2.61;87.48;101839.81;8714921;33;20257;-72
2021/11/23 10:05:37;;;;;;;39.58;18.90;;;;;;;2.69;87.62;101835.19;8716063;33;20132;-73
2021/11/23 10:10:50;;;;;;;37.60;17.85;;;;;;;2.77;87.45;101830.56;8714806;33;20189;-73
2021/11/23 10:15:54;;;;;;;37.97;18.63;;;;;;;2.84;87.61;101832.13;8667484;33;20195;-73
2021/11/23 10:21:19;;;;;;;36.20;19.42;;;;;;;2.99;87.31;101828.22;8717909;33;20191;-73
2021/11/23 10:26:28;;;;;;;41.28;20.50;;;;;;;2.99;87.66;101820.25;8719922;33;20526;-73
2021/11/23 10:31:34;;;;;;;38.95;19.95;;;;;;;3.45;87.97;101824.28;8720702;33;20893;-73
2021/11/23 10:36:41;;;;;;;34.97;17.63;;;;;;;3.20;86.58;101820.59;8720419;33;21637;-72
2021/11/23 10:41:50;;;;;;;34.58;19.15;;;;;;;3.06;87.65;101819.16;8719625;33;20329;-73
2021/11/23 10:46:57;;;;;;;39.95;17.02;;;;;;;2.87;88.29;101815.25;8720192;33;20343;-72
2021/11/23 10:52:02;;;;;;;36.25;18.05;;;;;;;2.84;89.03;101794.09;8719859;33;21000;-74
2021/11/23 10:57:09;;;;;;;42.63;18.25;;;;;;;3.08;89.79;101803.22;8719529;33;20294;-73
2021/11/23 11:02:14;;;;;;;37.92;18.63;;;;;;;3.26;89.36;101799.16;8720361;33;20743;-73
2021/11/23 11:07:20;;;;;;;40.15;19.30;;;;;;;3.33;88.90;101794.56;8718692;33;20199;-72
2021/11/23 11:12:24;;;;;;;44.22;18.85;;;;;;;3.51;88.16;101788.69;8718883;33;20167;-73
2021/11/23 11:17:29;;;;;;;43.13;19.50;;;;;;;3.30;88.55;101787.56;8719081;33;20203;-72
2021/11/23 11:22:32;;;;;;;40.75;19.85;;;;;;;3.22;88.88;101782.44;8719522;33;20274;-72
2021/11/23 11:27:45;;;;;;;36.25;18.50;;;;;;;3.21;89.13;101780.72;8723220;33;20201;-71
2021/11/23 11:32:52;;;;;;;39.38;17.92;;;;;;;3.29;88.98;101777.81;8720642;33;20201;-74
2021/11/23 11:37:58;;;;;;;39.30;18.73;;;;;;;3.55;89.65;101773.56;8718026;33;20702;-72
2021/11/23 11:43:05;;;;;;;44.65;21.27;;;;;;;3.53;88.03;101776.25;8717009;33;20191;-72
2021/11/23 11:48:48;;;;;;;37.58;19.30;;;;;;;3.49;87.90;101775.47;8691562;33;20697;-72
2021/11/23 11:53:51;;;;;;;40.08;18.48;;;;;;;3.28;88.08;101776.09;8581222;33;20195;-72
2021/11/23 11:58:57;;;;;;;40.47;20.90;;;;;;;3.47;87.71;101771.97;8717420;33;20151;-73
2021/11/23 12:04:13;;;;;;;33.13;14.43;;;;;;;3.33;88.07;101768.88;8716698;33;20766;-72
2021/11/23 12:09:26;;;;;;;42.00;20.80;;;;;;;3.57;87.73;101777.91;8716868;33;20554;-72
2021/11/23 12:14:40;;;;;;;40.00;18.20;;;;;;;3.63;87.29;101780.38;8714174;33;20585;-72
2021/11/23 12:19:56;;;;;;;43.10;20.35;;;;;;;3.45;87.57;101767.63;8717298;33;20920;-73
2021/11/23 12:25:05;;;;;;;38.80;20.70;;;;;;;3.60;87.38;101785.78;8717966;33;20315;-73
2021/11/23 12:30:09;;;;;;;39.60;20.10;;;;;;;3.72;87.19;101782.75;8717219;33;20142;-73
2021/11/23 12:35:16;;;;;;;38.97;20.45;;;;;;;3.72;87.26;101781.88;8717713;33;20175;-74
2021/11/23 12:40:23;;;;;;;42.88;20.20;;;;;;;3.78;87.49;101781.69;8717046;33;20461;-73
2021/11/23 12:45:41;;;;;;;39.55;19.65;;;;;;;3.84;87.29;101776.22;8717182;33;20144;-73
2021/11/23 12:50:46;;;;;;;43.72;21.55;;;;;;;3.83;86.99;101779.78;8718379;33;20729;-73
2021/11/23 12:55:53;;;;;;;42.47;20.73;;;;;;;4.12;87.08;101773.53;8716631;33;20180;-72
2021/11/23 13:00:56;;;;;;;37.83;19.58;;;;;;;4.14;86.41;101777.03;8715885;33;20188;-73
2021/11/23 13:06:12;;;;;;;42.53;18.92;;;;;;;4.04;86.53;101782.69;8717271;33;20136;-73
2021/11/23 13:11:17;;;;;;;39.67;20.42;;;;;;;4.20;86.81;101777.72;8715662;33;20423;-72
2021/11/23 13:16:20;;;;;;;36.40;18.05;;;;;;;4.12;86.71;101785.97;8718319;33;20242;-72
2021/11/23 13:21:25;;;;;;;36.22;18.48;;;;;;;4.20;86.53;101781.28;8716290;33;20183;-74
2021/11/23 13:26:28;;;;;;;40.22;19.23;;;;;;;4.19;86.17;101776.88;8717070;33;20152;-73
2021/11/23 13:31:34;;;;;;;35.75;19.23;;;;;;;4.30;86.60;101784.50;8717331;33;20184;-73
2021/11/23 13:36:41;;;;;;;37.20;17.70;;;;;;;4.40;86.55;101770.00;8716794;33;20190;-73
2021/11/23 13:41:48;;;;;;;38.60;19.30;;;;;;;4.28;86.38;101771.28;8715118;33;20229;-74
2021/11/23 13:46:55;;;;;;;38.97;19.23;;;;;;;4.23;86.32;101754.59;8714244;33;20436;-74
2021/11/23 13:52:11;;;;;;;35.20;18.13;;;;;;;4.28;86.49;101757.06;8716222;33;20212;-73
2021/11/23 13:57:17;;;;;;;40.53;20.08;;;;;;;4.32;86.72;101756.94;8715266;33;20487;-74
2021/11/23 14:02:20;;;;;;;40.13;19.23;;;;;;;4.26;86.71;101751.81;8715602;33;21007;-74
2021/11/23 14:07:25;;;;;;;36.20;19.17;;;;;;;4.29;87.07;101753.50;8725379;33;20198;-73
2021/11/23 14:12:32;;;;;;;40.75;19.88;;;;;;;4.22;86.95;101760.81;8741953;33;20194;-73
2021/11/23 14:18:07;;;;;;;38.72;18.05;;;;;;;4.18;87.00;101762.69;8767976;33;20186;-72
2021/11/23 14:23:17;;;;;;;44.83;21.38;;;;;;;4.20;87.35;101765.31;8723088;33;20195;-74
2021/11/23 14:28:20;;;;;;;48.55;21.67;;;;;;;4.34;87.19;101756.91;8718207;33;20621;-73
2021/11/23 14:33:25;;;;;;;51.75;22.25;;;;;;;4.26;87.00;101757.13;8729683;33;20443;-73
2021/11/23 14:38:29;;;;;;;50.70;21.40;;;;;;;4.30;87.33;101753.44;8715294;33;20198;-73
2021/11/23 14:43:32;;;;;;;46.63;22.65;;;;;;;4.29;87.58;101743.72;8716308;33;20462;-73
2021/11/23 14:48:35;;;;;;;48.13;21.27;;;;;;;4.29;87.44;101740.22;8715123;33;20586;-73
2021/11/23 14:53:58;;;;;;;40.75;18.92;;;;;;;4.15;88.42;101738.88;8715165;33;20144;-74
2021/11/23 14:59:03;;;;;;;46.08;19.92;;;;;;;4.30;88.26;101753.44;8712830;33;20283;-73
2021/11/23 15:04:06;;;;;;;45.78;20.23;;;;;;;4.31;88.27;101743.69;8715551;33;20554;-73
2021/11/23 15:09:10;;;;;;;41.85;19.25;;;;;;;4.19;88.54;101750.25;8719856;33;20619;-73
2021/11/23 15:14:14;;;;;;;41.42;20.35;;;;;;;4.37;88.28;101752.34;8719893;33;20174;-75
2021/11/23 15:19:17;;;;;;;37.97;17.38;;;;;;;4.35;88.38;101756.81;8717975;33;20237;-73
2021/11/23 15:24:21;;;;;;;43.78;19.27;;;;;;;4.35;88.56;101755.97;8718279;33;20715;-73
2021/11/23 15:29:27;;;;;;;39.10;18.95;;;;;;;4.22;89.19;101743.97;8712767;33;20663;-74
2021/11/23 15:34:33;;;;;;;36.53;17.63;;;;;;;4.08;90.19;101747.09;8718041;33;20190;-75
2021/11/23 15:39:38;;;;;;;33.22;15.23;;;;;;;4.08;90.23;101747.09;8717935;33;20917;-73
2021/11/23 15:44:41;;;;;;;36.08;17.20;;;;;;;4.06;90.65;101748.91;8717438;33;20191;-73
2021/11/23 15:49:49;;;;;;;32.67;16.35;;;;;;;4.13;90.46;101746.03;8713086;33;21469;-73
2021/11/23 15:54:58;;;;;;;36.72;15.35;;;;;;;3.98;91.48;101745.63;8718614;33;20155;-74
2021/11/23 16:00:04;;;;;;;34.40;17.50;;;;;;;4.24;90.21;101743.00;8718204;33;20193;-74
2021/11/23 16:05:08;;;;;;;58.00;18.25;;;;;;;4.20;90.13;101736.06;8719139;33;20917;-74
2021/11/23 16:10:13;;;;;;;41.92;18.65;;;;;;;4.22;90.18;101736.00;8703634;33;20714;-74
2021/11/23 16:15:16;;;;;;;53.63;20.45;;;;;;;4.12;90.63;101728.34;8717797;33;20202;-74
2021/11/23 16:20:19;;;;;;;49.67;19.45;;;;;;;4.15;90.28;101735.34;8717433;33;20183;-74
2021/11/23 16:25:23;;;;;;;69.18;20.05;;;;;;;4.02;90.72;101729.53;8717561;33;20152;-74
2021/11/23 16:30:27;;;;;;;58.53;19.05;;;;;;;3.97;91.04;101730.63;8716298;33;20154;-73
2021/11/23 16:35:30;;;;;;;56.30;20.63;;;;;;;3.97;91.20;101751.88;8709611;33;22055;-74
2021/11/23 16:40:36;;;;;;;61.55;20.90;;;;;;;4.05;91.03;101741.88;8658742;33;20172;-74
2021/11/23 16:45:39;;;;;;;53.88;19.80;;;;;;;3.87;91.52;101746.88;8720879;33;20261;-73
2021/11/23 16:50:43;;;;;;;38.83;17.40;;;;;;;4.00;91.41;101751.78;8718629;33;20192;-74
2021/11/23 16:55:49;;;;;;;45.35;21.23;;;;;;;4.04;90.95;101745.47;8718453;33;20200;-74
2021/11/23 17:00:55;;;;;;;52.22;20.38;;;;;;;4.13;90.76;101750.47;8716867;33;20187;-74
2021/11/23 17:06:02;;;;;;;43.63;19.58;;;;;;;4.07;90.84;101751.53;8716657;33;20202;-74
2021/11/23 17:11:06;;;;;;;44.58;20.20;;;;;;;4.36;89.85;101744.38;8717590;33;20183;-74
2021/11/23 17:16:09;;;;;;;43.38;19.25;;;;;;;4.21;90.34;101737.78;8717623;33;20237;-74
2021/11/23 17:21:14;;;;;;;45.63;20.02;;;;;;;4.12;90.87;101736.31;8716999;33;20479;-74
2021/11/23 17:26:18;;;;;;;44.17;18.55;;;;;;;4.22;90.71;101733.34;8718433;33;20191;-74
2021/11/23 17:31:21;;;;;;;42.30;19.00;;;;;;;4.36;90.00;101739.06;8774894;33;22127;-75
2021/11/23 17:36:24;;;;;;;39.63;19.33;;;;;;;4.29;90.08;101738.41;8775489;33;22016;-74
2021/11/23 17:41:29;;;;;;;41.08;19.30;;;;;;;4.42;89.81;101733.56;8773697;33;20197;-75
2021/11/23 17:46:32;;;;;;;42.45;17.73;;;;;;;4.37;89.90;101730.19;8771844;33;20185;-74
2021/11/23 17:51:35;;;;;;;42.85;19.02;;;;;;;4.36;90.00;101737.31;8773806;33;20263;-74
2021/11/23 17:56:41;;;;;;;49.53;21.42;;;;;;;4.43;89.84;101729.09;8774207;33;20243;-74
2021/11/23 18:01:48;;;;;;;52.00;24.75;;;;;;;4.44;89.74;101736.16;8774165;33;20610;-74
2021/11/23 18:06:51;;;;;;;46.38;22.60;;;;;;;4.48;89.69;101737.81;8774410;33;20958;-74
2021/11/23 18:11:55;;;;;;;51.00;23.13;;;;;;;4.50;89.58;101727.94;8775231;33;20446;-74
2021/11/23 18:16:59;;;;;;;63.38;25.58;;;;;;;4.40;89.82;101735.41;8774947;33;20190;-74
2021/11/23 18:22:02;;;;;;;55.22;23.33;;;;;;;4.36;90.24;101731.09;8774490;33;20163;-73
2021/11/23 18:27:08;;;;;;;60.03;24.38;;;;;;;4.48;89.76;101730.69;8771842;33;20197;-74
2021/11/23 18:32:12;;;;;;;54.22;24.17;;;;;;;4.34;90.23;101735.59;8773083;33;20186;-74
2021/11/23 18:37:16;;;;;;;53.83;23.45;;;;;;;4.39;90.16;101739.00;8773760;33;21379;-74
2021/11/23 18:42:21;;;;;;;54.70;24.35;;;;;;;4.40;90.16;101733.59;8775721;33;20187;-74
2021/11/23 18:47:25;;;;;;;52.75;23.42;;;;;;;4.40;90.04;101733.59;8778147;33;20183;-74
2021/11/23 18:52:28;;;;;;;56.65;24.50;;;;;;;4.31;90.46;101728.59;8779071;33;20201;-74
2021/11/23 18:57:32;;;;;;;56.33;24.08;;;;;;;4.33;90.14;101731.19;8778715;33;20557;-74
2021/11/23 19:02:36;;;;;;;55.72;23.17;;;;;;;4.33;90.41;101731.19;8777862;33;20191;-74
2021/11/23 19:07:39;;;;;;;59.33;21.80;;;;;;;4.31;90.38;101728.59;8777159;33;20151;-74
2021/11/23 19:12:46;;;;;;;58.55;24.17;;;;;;;4.42;90.07;101728.25;8778341;33;20179;-74
2021/11/23 19:17:51;;;;;;;61.23;25.00;;;;;;;4.43;89.86;101729.09;8753406;33;20427;-74
2021/11/23 19:22:56;;;;;;;63.47;26.73;;;;;;;4.44;89.90;101730.84;8779286;33;20217;-74
2021/11/23 19:28:01;;;;;;;65.97;27.38;;;;;;;4.43;89.94;101726.44;8779348;33;20412;-74
2021/11/23 19:33:04;;;;;;;59.67;22.67;;;;;;;4.32;90.19;101719.69;8775937;33;20187;-74
2021/11/23 19:38:07;;;;;;;65.10;26.42;;;;;;;4.16;90.53;101727.28;8777499;33;20277;-74
2021/11/23 19:43:14;;;;;;;67.30;25.58;;;;;;;4.40;89.89;101719.44;8777554;33;20298;-74
2021/11/23 19:48:17;;;;;;;61.67;25.58;;;;;;;4.40;89.75;101717.63;8814262;33;20202;-74
2021/11/23 19:53:20;;;;;;;56.47;24.35;;;;;;;4.15;90.23;101728.22;8814158;33;20233;-74
2021/11/23 19:58:25;;;;;;;55.47;22.65;;;;;;;4.22;90.25;101720.03;8780831;33;20217;-74
2021/11/23 20:03:28;;;;;;;61.88;24.50;;;;;;;4.29;89.90;101717.13;8778822;33;20195;-74
2021/11/23 20:08:31;;;;;;;56.83;24.70;;;;;;;4.20;90.13;101714.78;8776690;33;20769;-74
2021/11/23 20:13:36;;;;;;;57.83;21.73;;;;;;;4.32;89.67;101711.69;8777773;33;22223;-74
2021/11/23 20:18:39;;;;;;;59.22;24.58;;;;;;;4.15;90.23;101720.25;8777678;33;20266;-74
2021/11/23 20:23:42;;;;;;;58.08;25.92;;;;;;;4.33;89.84;101715.22;8777693;33;20247;-75
2021/11/23 20:28:48;;;;;;;63.08;23.73;;;;;;;4.27;90.00;101718.09;8777376;33;20684;-74
2021/11/23 20:33:51;;;;;;;67.70;26.08;;;;;;;4.34;89.72;101719.66;8778146;33;20259;-74
2021/11/23 20:38:54;;;;;;;79.07;28.77;;;;;;;4.29;89.87;101722.44;8778135;33;20175;-74
2021/11/23 20:43:58;;;;;;;63.63;24.70;;;;;;;4.35;89.68;101710.72;8776738;33;20149;-74
2021/11/23 20:49:01;;;;;;;77.32;26.77;;;;;;;4.36;89.59;101717.78;8776764;33;20186;-73
2021/11/23 20:54:04;;;;;;;78.10;28.35;;;;;;;4.35;89.46;101716.06;8777331;33;20178;-74
2021/11/23 20:59:09;;;;;;;71.90;27.60;;;;;;;4.37;89.63;101707.09;8776746;33;21020;-74
2021/11/23 21:04:12;;;;;;;88.30;28.73;;;;;;;4.40;89.33;101717.63;8777062;33;20188;-74
2021/11/23 21:09:16;;;;;;;91.05;27.38;;;;;;;4.43;89.23;101715.78;8775858;33;20159;-74
2021/11/23 21:14:22;;;;;;;68.10;26.83;;;;;;;4.44;89.24;101706.88;8772933;33;20201;-72
2021/11/23 21:19:25;;;;;;;69.97;27.95;;;;;;;4.37;89.48;101703.56;8775392;33;20688;-73
2021/11/23 21:24:28;;;;;;;89.65;27.52;;;;;;;4.32;89.30;101714.38;8775926;33;20143;-74
2021/11/23 21:29:32;;;;;;;86.53;25.70;;;;;;;4.21;89.82;101705.00;8773470;33;20213;-74
2021/11/23 21:34:37;;;;;;;76.68;26.58;;;;;;;4.24;89.72;101699.59;8774590;33;20221;-73
2021/11/23 21:39:41;;;;;;;65.53;24.58;;;;;;;4.37;89.53;101698.25;8772991;33;20187;-74
2021/11/23 21:44:47;;;;;;;85.57;28.13;;;;;;;4.36;89.26;101696.50;8774273;33;21886;-73
2021/11/23 21:49:53;;;;;;;61.13;23.48;;;;;;;4.34;89.32;101693.03;8774811;33;20669;-73
2021/11/23 21:54:56;;;;;;;69.32;26.05;;;;;;;4.30;89.52;101694.91;8775963;33;20546;-75
2021/11/23 22:00:00;;;;;;;72.43;25.67;;;;;;;4.31;89.38;101690.50;8774547;33;20539;-74
2021/11/23 22:05:13;;;;;;;70.00;25.55;;;;;;;4.26;89.54;101692.44;8777853;33;20222;-73
2021/11/23 22:10:16;;;;;;;69.18;24.50;;;;;;;4.25;89.43;101693.34;8774271;33;20436;-72
2021/11/23 22:15:21;;;;;;;84.25;25.23;;;;;;;4.28;89.40;101698.53;8775847;33;20182;-73
2021/11/23 22:20:25;;;;;;;63.03;24.08;;;;;;;4.25;89.37;101690.66;8779866;33;20186;-74
2021/11/23 22:25:29;;;;;;;62.95;24.83;;;;;;;4.30;89.53;101686.94;8780469;33;20477;-72
2021/11/23 22:30:33;;;;;;;72.07;25.95;;;;;;;4.25;89.81;101696.00;8777952;33;20151;-73
2021/11/23 22:35:37;;;;;;;60.40;20.20;;;;;;;4.16;89.70;101684.75;8779711;33;20477;-73
2021/11/23 22:40:40;;;;;;;55.45;22.52;;;;;;;4.30;89.44;101694.91;8778817;33;20242;-73
2021/11/23 22:45:45;;;;;;;70.63;24.40;;;;;;;4.23;89.43;101684.56;8775702;33;20244;-72
2021/11/23 22:50:48;;;;;;;63.05;24.05;;;;;;;4.17;89.74;101691.81;8778344;33;20751;-72
2021/11/23 22:55:51;;;;;;;62.40;25.38;;;;;;;4.17;89.85;101689.16;8778189;33;20186;-73
2021/11/23 23:01:13;;;;;;;68.15;23.60;;;;;;;4.21;89.87;101681.06;8778555;33;20629;-72
2021/11/23 23:06:16;;;;;;;65.75;23.50;;;;;;;4.17;89.95;101680.31;8777471;33;20229;-73
2021/11/23 23:11:20;;;;;;;70.22;23.67;;;;;;;4.24;89.67;101680.97;8778037;33;20182;-73
2021/11/23 23:16:24;;;;;;;73.25;22.58;;;;;;;4.03;90.26;101680.78;8776733;33;20874;-73
2021/11/23 23:21:28;;;;;;;59.85;21.90;;;;;;;4.00;90.36;101672.88;8776978;33;21042;-73